Time;durP1;ratioP1;P1;durP2;ratioP2;P2;SDS_P1;SDS_P2;PMS_P1;PMS_P2;Temp;Humidity;BMP_temperature;BMP_pressure;BME280_temperature;BME280_humidity;BME280_pressure;Samples;Min_cycle;Max_cycle;Signal;HPM_P1;HPM_P2
2021/12/19 00:01:01;;;;;;;42.33;24.95;;;;;;;;;;5076418;28;20087;-72
2021/12/19 00:08:50;;;;;;;50.85;28.35;;;;;;;;;;5081683;28;20115;-72
2021/12/19 00:11:17;;;;;;;49.83;27.92;;;;;;;;;;5081791;28;20510;-72
2021/12/19 00:13:44;;;;;;;50.22;29.13;;;;;;;;;;5084163;28;20399;-72
2021/12/19 00:16:10;;;;;;;46.45;24.73;;;;;;;;;;5080533;28;20032;-71
2021/12/19 00:18:37;;;;;;;60.25;32.10;;;;;;;;;;5082825;28;20514;-75
2021/12/19 00:21:03;;;;;;;57.13;31.35;;;;;;;;;;5078131;28;20099;-75
2021/12/19 00:23:30;;;;;;;52.70;29.08;;;;;;;;;;5081521;28;20029;-75
2021/12/19 00:25:56;;;;;;;51.53;29.60;;;;;;;;;;5082298;28;20056;-71
2021/12/19 00:28:23;;;;;;;49.47;29.20;;;;;;;;;;5077084;28;20144;-71
2021/12/19 00:30:49;;;;;;;52.72;29.27;;;;;;;;;;5076023;28;20024;-71
2021/12/19 00:33:15;;;;;;;50.83;28.23;;;;;;;;;;5076217;28;20027;-75
2021/12/19 00:35:41;;;;;;;53.33;28.80;;;;;;;;;;5074849;28;20503;-74
2021/12/19 00:38:07;;;;;;;57.38;34.08;;;;;;;;;;5079533;28;20086;-70
2021/12/19 00:40:33;;;;;;;70.55;40.28;;;;;;;;;;5077567;28;20031;-70
2021/12/19 00:43:10;;;;;;;60.25;35.45;;;;;;;;;;5074871;28;20040;-71
2021/12/19 00:45:40;;;;;;;48.38;28.27;;;;;;;;;;5078108;28;20032;-68
2021/12/19 00:48:07;;;;;;;47.30;27.50;;;;;;;;;;5080087;28;20031;-75
2021/12/19 00:50:34;;;;;;;130.55;73.70;;;;;;;;;;5081886;28;20054;-76
2021/12/19 00:53:00;;;;;;;87.57;49.28;;;;;;;;;;5079973;28;20038;-70
2021/12/19 00:55:27;;;;;;;64.97;35.65;;;;;;;;;;5079716;28;20036;-70
2021/12/19 00:57:54;;;;;;;64.10;37.15;;;;;;;;;;5079929;28;20032;-70
2021/12/19 01:00:23;;;;;;;69.72;39.08;;;;;;;;;;5079960;28;20055;-70
2021/12/19 11:33:04;;;;;;;15.45;8.30;;;;;;;;;;5115645;27;20126;-76
2021/12/19 11:35:36;;;;;;;15.48;7.97;;;;;;;;;;5121892;28;20026;-77
2021/12/19 11:38:03;;;;;;;12.45;7.57;;;;;;;;;;5118164;27;20031;-81
2021/12/19 11:40:36;;;;;;;12.35;7.75;;;;;;;;;;5114207;27;20034;-75
2021/12/19 11:43:03;;;;;;;21.63;9.68;;;;;;;;;;5117665;27;20106;-76
2021/12/19 11:45:40;;;;;;;13.57;8.05;;;;;;;;;;5120907;27;20043;-78
2021/12/19 11:48:17;;;;;;;15.25;8.25;;;;;;;;;;5120756;27;20513;-77
2021/12/19 11:50:48;;;;;;;16.05;9.38;;;;;;;;;;5136312;27;20035;-76
2021/12/19 11:53:17;;;;;;;14.27;7.00;;;;;;;;;;5135529;27;20026;-77
2021/12/19 11:55:53;;;;;;;12.65;7.65;;;;;;;;;;5117346;27;20062;-78
2021/12/19 11:58:22;;;;;;;10.70;7.32;;;;;;;;;;5130510;27;20035;-78
2021/12/19 12:01:05;;;;;;;12.23;8.02;;;;;;;;;;5119196;27;20063;-79
2021/12/19 12:03:45;;;;;;;14.07;7.43;;;;;;;;;;5131902;27;20637;-78
2021/12/19 12:06:16;;;;;;;16.67;7.85;;;;;;;;;;5131252;27;20035;-80
2021/12/19 12:09:00;;;;;;;14.65;7.60;;;;;;;;;;5133783;27;20409;-78
2021/12/19 12:11:27;;;;;;;16.02;8.15;;;;;;;;;;5135580;27;20088;-76
2021/12/19 12:14:04;;;;;;;11.57;6.88;;;;;;;;;;5133086;27;20119;-77
2021/12/19 12:16:38;;;;;;;11.25;7.30;;;;;;;;;;5116030;27;20019;-76
2021/12/19 12:19:06;;;;;;;10.68;7.10;;;;;;;;;;5116383;27;20089;-80
2021/12/19 12:24:05;;;;;;;12.05;6.43;;;;;;;;;;5113984;27;20051;-78
2021/12/19 12:26:53;;;;;;;12.57;7.18;;;;;;;;;;5131968;27;20366;-77
2021/12/19 12:29:20;;;;;;;10.80;6.72;;;;;;;;;;5131778;27;20107;-76
2021/12/19 12:31:47;;;;;;;11.35;7.00;;;;;;;;;;5123914;27;20426;-76
2021/12/19 12:34:14;;;;;;;11.15;7.47;;;;;;;;;;5136111;27;20038;-77
2021/12/19 12:36:40;;;;;;;12.23;7.60;;;;;;;;;;5118370;27;20019;-75
2021/12/19 12:39:10;;;;;;;11.80;7.07;;;;;;;;;;5107893;27;20035;-78
2021/12/19 12:41:51;;;;;;;10.10;6.80;;;;;;;;;;5108864;27;20028;-77
2021/12/19 12:44:18;;;;;;;10.48;6.35;;;;;;;;;;5121339;27;20490;-75
2021/12/19 12:46:45;;;;;;;9.80;5.90;;;;;;;;;;5107316;27;20498;-77
2021/12/19 12:49:26;;;;;;;10.20;6.50;;;;;;;;;;5103360;27;20031;-78
2021/12/19 12:51:58;;;;;;;10.32;6.38;;;;;;;;;;5100332;27;20118;-75
2021/12/19 12:54:29;;;;;;;11.60;6.40;;;;;;;;;;5096938;27;20467;-76
2021/12/19 12:56:56;;;;;;;13.77;6.35;;;;;;;;;;5103299;27;20035;-76
2021/12/19 12:59:30;;;;;;;11.48;6.38;;;;;;;;;;5096978;27;20479;-77
2021/12/19 13:02:09;;;;;;;10.23;6.15;;;;;;;;;;5094662;27;20032;-76
2021/12/19 13:04:38;;;;;;;9.48;5.97;;;;;;;;;;5092849;27;20064;-77
2021/12/19 13:07:11;;;;;;;10.88;6.88;;;;;;;;;;5099160;27;20035;-78
2021/12/19 13:09:37;;;;;;;10.07;6.28;;;;;;;;;;5087339;27;20057;-77
2021/12/19 13:12:10;;;;;;;8.80;6.15;;;;;;;;;;5109824;27;20050;-77
2021/12/19 13:14:46;;;;;;;9.50;6.13;;;;;;;;;;5116885;27;20437;-76
2021/12/19 13:17:17;;;;;;;13.43;6.35;;;;;;;;;;5119383;27;20016;-76
2021/12/19 13:19:49;;;;;;;9.65;6.03;;;;;;;;;;5114817;27;20035;-77
2021/12/19 13:22:21;;;;;;;10.20;6.60;;;;;;;;;;5114917;27;20019;-78
2021/12/19 13:24:47;;;;;;;9.70;6.35;;;;;;;;;;5115656;27;20137;-86
2021/12/19 13:27:16;;;;;;;12.90;7.07;;;;;;;;;;5119922;27;20027;-76
2021/12/19 13:29:43;;;;;;;11.75;6.28;;;;;;;;;;5111807;27;20096;-81
2021/12/19 13:32:24;;;;;;;13.75;7.03;;;;;;;;;;5099815;27;20044;-82
2021/12/19 13:34:50;;;;;;;;;;;;;;;;;;5104231;27;20027;-77
2021/12/19 13:37:17;;;;;;;15.90;6.63;;;;;;;;;;5109015;27;19915;-77
2021/12/19 13:39:45;;;;;;;10.25;6.60;;;;;;;;;;5104831;27;20115;-79
2021/12/19 13:42:13;;;;;;;12.15;6.07;;;;;;;;;;5109301;27;20501;-82
2021/12/19 13:44:40;;;;;;;9.43;5.82;;;;;;;;;;5101817;27;20016;-78
2021/12/19 13:47:12;;;;;;;13.80;6.70;;;;;;;;;;5104162;27;20518;-80
2021/12/19 13:49:38;;;;;;;10.02;6.50;;;;;;;;;;5106946;27;20510;-79
2021/12/19 13:52:05;;;;;;;10.10;6.15;;;;;;;;;;5117283;27;20482;-79
2021/12/19 13:54:34;;;;;;;10.05;5.65;;;;;;;;;;5105910;27;20019;-77
2021/12/19 13:57:00;;;;;;;11.88;6.55;;;;;;;;;;5104914;27;20435;-81
2021/12/19 13:59:27;;;;;;;8.63;5.68;;;;;;;;;;5109782;27;20062;-81
2021/12/19 14:01:54;;;;;;;9.23;5.88;;;;;;;;;;5110605;27;20675;-80
2021/12/19 14:04:24;;;;;;;8.20;6.10;;;;;;;;;;5111763;27;20068;-86
2021/12/19 14:06:56;;;;;;;11.75;6.55;;;;;;;;;;5116324;27;20027;-84
2021/12/19 14:09:23;;;;;;;12.93;6.90;;;;;;;;;;5115089;27;20490;-83
2021/12/19 14:11:56;;;;;;;11.15;6.65;;;;;;;;;;5107407;27;20028;-81
2021/12/19 14:14:26;;;;;;;12.88;6.60;;;;;;;;;;5101572;27;20024;-79
2021/12/19 14:16:58;;;;;;;13.40;6.90;;;;;;;;;;5101083;27;20031;-80
2021/12/19 14:19:28;;;;;;;11.13;6.82;;;;;;;;;;5101682;27;20047;-81
2021/12/19 14:21:54;;;;;;;11.25;5.80;;;;;;;;;;5107466;27;20074;-79
2021/12/19 14:24:27;;;;;;;9.57;6.20;;;;;;;;;;5106114;27;20415;-81
2021/12/19 14:27:08;;;;;;;11.02;6.80;;;;;;;;;;5111447;27;20027;-82
2021/12/19 14:29:35;;;;;;;9.52;5.82;;;;;;;;;;5116852;27;20038;-80
2021/12/19 14:32:09;;;;;;;10.55;5.93;;;;;;;;;;5112463;27;20502;-80
2021/12/19 14:34:36;;;;;;;13.27;6.95;;;;;;;;;;5115199;27;20059;-86
2021/12/19 14:37:17;;;;;;;12.48;6.72;;;;;;;;;;5115285;27;20035;-86
2021/12/19 14:39:56;;;;;;;11.38;6.75;;;;;;;;;;5110751;27;20074;-83
2021/12/19 14:42:29;;;;;;;11.88;6.70;;;;;;;;;;5118851;27;20020;-88
2021/12/19 14:44:59;;;;;;;14.75;6.47;;;;;;;;;;5110695;27;20040;-87
2021/12/19 14:48:00;;;;;;;14.82;6.50;;;;;;;;;;5112262;27;20028;-87
2021/12/19 14:50:31;;;;;;;11.30;6.43;;;;;;;;;;5024521;28;20112;-82
2021/12/19 14:53:00;;;;;;;12.02;6.55;;;;;;;;;;5025603;28;20041;-77
2021/12/19 14:55:28;;;;;;;13.63;7.15;;;;;;;;;;5022895;28;20590;-79
2021/12/19 14:57:54;;;;;;;13.68;6.45;;;;;;;;;;5025022;28;20042;-83
2021/12/19 15:00:21;;;;;;;12.05;6.38;;;;;;;;;;5023029;28;20041;-81
2021/12/19 15:02:47;;;;;;;11.70;6.35;;;;;;;;;;5021629;28;20036;-79
2021/12/19 15:05:13;;;;;;;15.80;6.60;;;;;;;;;;5024596;28;20045;-83
2021/12/19 15:07:44;;;;;;;10.57;6.82;;;;;;;;;;5021424;28;20033;-80
2021/12/19 15:10:10;;;;;;;11.93;6.85;;;;;;;;;;5024858;28;20021;-80
2021/12/19 15:12:37;;;;;;;14.27;7.45;;;;;;;;;;5022218;28;20436;-80
2021/12/19 15:15:03;;;;;;;11.75;7.07;;;;;;;;;;5025423;28;20109;-82
2021/12/19 15:17:30;;;;;;;13.23;7.05;;;;;;;;;;5025666;28;20501;-81
2021/12/19 15:19:57;;;;;;;10.98;6.65;;;;;;;;;;5006846;28;20033;-83
2021/12/19 15:22:23;;;;;;;13.82;7.28;;;;;;;;;;5025438;28;20026;-81
2021/12/19 15:24:49;;;;;;;11.27;7.00;;;;;;;;;;5084150;27;20040;-80
2021/12/19 15:27:18;;;;;;;15.20;7.55;;;;;;;;;;5113155;28;20088;-82
2021/12/19 15:29:44;;;;;;;12.10;7.75;;;;;;;;;;5117766;28;20031;-82
2021/12/19 15:32:12;;;;;;;14.80;8.18;;;;;;;;;;5112623;28;20123;-81
2021/12/19 15:34:39;;;;;;;11.77;7.28;;;;;;;;;;5114357;28;20035;-79
2021/12/19 15:37:06;;;;;;;14.02;8.05;;;;;;;;;;5109395;28;20020;-79
2021/12/19 15:39:32;;;;;;;15.13;7.63;;;;;;;;;;5099522;28;20394;-80
2021/12/19 15:41:59;;;;;;;14.65;7.65;;;;;;;;;;5099232;28;20035;-78
2021/12/19 15:44:25;;;;;;;17.77;8.50;;;;;;;;;;5117995;28;20020;-78
2021/12/19 15:46:51;;;;;;;12.35;7.88;;;;;;;;;;5112880;28;20035;-80
2021/12/19 15:49:18;;;;;;;16.88;7.65;;;;;;;;;;5113063;28;20019;-79
2021/12/19 15:51:45;;;;;;;14.68;7.90;;;;;;;;;;5103862;28;20035;-79
2021/12/19 15:54:12;;;;;;;12.25;7.80;;;;;;;;;;5110711;28;20059;-79
2021/12/19 15:56:38;;;;;;;14.10;8.65;;;;;;;;;;5112515;28;20041;-80
2021/12/19 15:59:05;;;;;;;12.80;8.00;;;;;;;;;;5108376;28;20405;-78
2021/12/19 16:01:31;;;;;;;15.85;8.68;;;;;;;;;;5110537;28;20031;-78
2021/12/19 16:03:58;;;;;;;18.23;7.90;;;;;;;;;;5108451;28;20038;-78
2021/12/19 16:06:27;;;;;;;16.13;8.50;;;;;;;;;;5107678;28;20509;-81
2021/12/19 16:08:53;;;;;;;12.90;8.60;;;;;;;;;;5110011;28;20462;-81
2021/12/19 16:11:19;;;;;;;16.92;10.48;;;;;;;;;;5109366;28;20028;-78
2021/12/19 16:13:45;;;;;;;18.48;10.40;;;;;;;;;;5111605;28;20494;-80
2021/12/19 16:16:12;;;;;;;14.70;9.57;;;;;;;;;;5104127;28;20024;-80
2021/12/19 16:18:38;;;;;;;12.82;8.35;;;;;;;;;;5109506;27;20027;-76
2021/12/19 16:21:04;;;;;;;16.88;9.55;;;;;;;;;;5112016;27;20498;-77
2021/12/19 16:23:31;;;;;;;15.77;9.63;;;;;;;;;;5114526;27;20019;-76
2021/12/19 16:25:57;;;;;;;14.50;10.00;;;;;;;;;;5108064;27;20028;-78
2021/12/19 16:28:23;;;;;;;18.48;11.35;;;;;;;;;;5109790;27;20523;-77
2021/12/19 16:30:50;;;;;;;18.65;10.60;;;;;;;;;;5109824;27;20055;-78
2021/12/19 16:33:16;;;;;;;18.63;11.00;;;;;;;;;;5111549;27;20022;-77
2021/12/19 16:35:42;;;;;;;18.45;10.85;;;;;;;;;;5111705;27;20035;-77
2021/12/19 16:38:10;;;;;;;20.98;11.20;;;;;;;;;;5107136;27;20048;-78
2021/12/19 16:40:37;;;;;;;19.95;11.52;;;;;;;;;;5110108;27;20035;-83
2021/12/19 16:46:12;;;;;;;23.15;11.68;;;;;;;;;;5020493;28;20072;-81
2021/12/19 16:48:38;;;;;;;20.92;12.57;;;;;;;;;;5019285;28;20055;-82
2021/12/19 16:51:05;;;;;;;20.33;13.38;;;;;;;;;;5014848;28;20401;-83
2021/12/19 16:53:33;;;;;;;25.48;13.75;;;;;;;;;;5015206;28;20048;-82
2021/12/19 16:55:59;;;;;;;22.42;12.90;;;;;;;;;;5012589;28;20030;-79
2021/12/19 16:58:25;;;;;;;23.30;13.68;;;;;;;;;;5010621;28;20042;-82
2021/12/19 17:00:52;;;;;;;23.73;13.90;;;;;;;;;;5011347;28;20772;-82
2021/12/19 17:03:19;;;;;;;20.80;12.88;;;;;;;;;;5011029;28;20109;-78
2021/12/19 17:05:45;;;;;;;24.40;14.20;;;;;;;;;;5017108;28;20060;-80
2021/12/19 17:08:11;;;;;;;25.27;13.82;;;;;;;;;;5008118;28;20030;-79
2021/12/19 17:10:37;;;;;;;27.27;15.40;;;;;;;;;;5010984;28;20049;-79
2021/12/19 17:13:06;;;;;;;26.33;15.35;;;;;;;;;;5014088;28;20037;-80
2021/12/19 17:15:32;;;;;;;26.77;15.00;;;;;;;;;;5015128;28;20476;-77
2021/12/19 17:17:58;;;;;;;24.38;15.57;;;;;;;;;;5103349;27;20032;-77
2021/12/19 17:20:26;;;;;;;23.33;15.18;;;;;;;;;;5107152;27;20027;-78
2021/12/19 17:22:56;;;;;;;22.63;13.98;;;;;;;;;;5108730;27;20039;-77
2021/12/19 17:25:22;;;;;;;21.38;14.07;;;;;;;;;;5112246;27;20737;-77
2021/12/19 17:27:48;;;;;;;26.13;14.48;;;;;;;;;;5108219;27;20758;-80
2021/12/19 17:30:15;;;;;;;23.27;14.68;;;;;;;;;;5104411;27;20116;-77
2021/12/19 17:32:41;;;;;;;24.33;14.50;;;;;;;;;;5098358;27;20040;-80
2021/12/19 17:35:08;;;;;;;22.85;15.45;;;;;;;;;;5111706;27;20023;-81
2021/12/19 17:37:35;;;;;;;30.98;17.50;;;;;;;;;;5109977;27;20038;-80
2021/12/19 17:40:08;;;;;;;42.05;21.73;;;;;;;;;;5100353;27;20020;-79
2021/12/19 17:42:34;;;;;;;46.22;23.92;;;;;;;;;;5108579;27;20039;-78
2021/12/19 17:45:00;;;;;;;41.28;20.67;;;;;;;;;;5110403;27;20483;-81
2021/12/19 17:47:28;;;;;;;30.98;18.48;;;;;;;;;;5106977;27;20025;-81
2021/12/19 17:49:54;;;;;;;29.42;15.93;;;;;;;;;;5105599;27;20028;-79
2021/12/19 17:52:23;;;;;;;28.67;16.75;;;;;;;;;;5113919;27;20039;-79
2021/12/19 17:54:49;;;;;;;31.88;16.77;;;;;;;;;;5110155;27;20046;-80
2021/12/19 17:57:15;;;;;;;32.65;18.42;;;;;;;;;;5101370;27;20035;-78
2021/12/19 17:59:41;;;;;;;39.22;20.58;;;;;;;;;;5115988;27;20034;-78
2021/12/19 18:02:07;;;;;;;30.27;17.85;;;;;;;;;;5114979;27;20028;-78
2021/12/19 18:04:39;;;;;;;25.08;15.50;;;;;;;;;;5121651;27;20030;-76
2021/12/19 18:07:06;;;;;;;26.73;15.73;;;;;;;;;;5119328;27;20043;-77
2021/12/19 18:09:32;;;;;;;27.08;15.95;;;;;;;;;;5111239;27;20059;-76
2021/12/19 18:11:59;;;;;;;25.85;16.23;;;;;;;;;;5111070;27;20036;-76
2021/12/19 18:14:25;;;;;;;33.13;17.15;;;;;;;;;;5114331;27;20038;-75
2021/12/19 18:16:51;;;;;;;27.27;17.65;;;;;;;;;;5108732;27;20115;-77
2021/12/19 18:19:17;;;;;;;29.48;18.25;;;;;;;;;;5106606;27;20054;-76
2021/12/19 18:21:43;;;;;;;60.30;26.73;;;;;;;;;;5113217;27;20102;-72
2021/12/19 18:24:09;;;;;;;82.85;31.88;;;;;;;;;;5114927;27;20107;-72
2021/12/19 18:26:35;;;;;;;53.13;26.15;;;;;;;;;;5117644;27;20023;-71
2021/12/19 18:29:02;;;;;;;49.83;24.95;;;;;;;;;;5100543;27;20103;-71
2021/12/19 18:31:29;;;;;;;43.65;24.23;;;;;;;;;;5108649;27;20054;-72
2021/12/19 18:34:03;;;;;;;40.00;20.50;;;;;;;;;;5108102;27;20110;-72
2021/12/19 18:36:33;;;;;;;36.33;19.20;;;;;;;;;;5111944;27;20134;-73
2021/12/19 18:39:00;;;;;;;34.85;18.83;;;;;;;;;;5117992;27;20103;-73
2021/12/19 18:41:37;;;;;;;32.00;18.38;;;;;;;;;;5117632;27;20043;-72
2021/12/19 18:44:14;;;;;;;27.45;16.75;;;;;;;;;;5112438;27;20035;-73
2021/12/19 18:46:52;;;;;;;32.35;17.83;;;;;;;;;;5108819;27;20031;-72
2021/12/19 18:49:35;;;;;;;30.85;18.75;;;;;;;;;;5107317;27;20012;-72
2021/12/19 18:54:46;;;;;;;32.85;17.95;;;;;;;;;;5114293;27;20027;-72
2021/12/19 18:57:13;;;;;;;29.35;17.88;;;;;;;;;;5113154;27;20118;-71
2021/12/19 18:59:44;;;;;;;24.33;16.08;;;;;;;;;;5116264;27;20401;-74
2021/12/19 19:02:25;;;;;;;24.75;15.90;;;;;;;;;;5111818;27;20934;-74
2021/12/19 19:04:57;;;;;;;24.98;15.52;;;;;;;;;;5109940;27;20024;-73
2021/12/19 19:07:23;;;;;;;25.73;16.25;;;;;;;;;;5104449;27;20024;-73
2021/12/19 19:09:50;;;;;;;24.38;15.95;;;;;;;;;;5113726;27;20019;-73
2021/12/19 19:12:20;;;;;;;23.83;14.25;;;;;;;;;;5115726;27;20039;-73
2021/12/19 19:14:48;;;;;;;14.77;9.57;;;;;;;;;;5114549;27;20076;-73
2021/12/19 19:17:15;;;;;;;20.50;13.18;;;;;;;;;;5113609;27;20032;-72
2021/12/19 19:19:42;;;;;;;20.42;12.93;;;;;;;;;;5115472;27;20086;-72
2021/12/19 19:22:09;;;;;;;21.45;13.27;;;;;;;;;;5111363;27;20486;-73
2021/12/19 19:24:35;;;;;;;22.83;13.98;;;;;;;;;;5101930;27;20686;-72
2021/12/19 19:27:02;;;;;;;18.90;13.30;;;;;;;;;;5112159;27;20027;-73
2021/12/19 19:29:29;;;;;;;22.48;13.40;;;;;;;;;;5107440;27;20028;-74
2021/12/19 19:31:56;;;;;;;21.10;14.40;;;;;;;;;;5111752;28;20043;-74
2021/12/19 19:34:22;;;;;;;22.55;14.18;;;;;;;;;;5108678;28;20028;-74
2021/12/19 19:36:51;;;;;;;25.42;14.80;;;;;;;;;;5113390;28;20047;-74
2021/12/19 19:42:43;;;;;;;26.17;15.85;;;;;;;;;;5113291;28;20084;-73
2021/12/19 19:50:21;;;;;;;24.67;15.50;;;;;;;;;;5109024;28;20050;-73
2021/12/19 19:52:47;;;;;;;22.33;15.77;;;;;;;;;;5107005;27;20043;-74
2021/12/19 19:55:14;;;;;;;25.02;16.20;;;;;;;;;;5102486;28;20039;-73
2021/12/19 19:57:40;;;;;;;25.10;15.73;;;;;;;;;;5102722;28;20035;-73
2021/12/19 20:00:08;;;;;;;23.92;16.13;;;;;;;;;;5105160;28;20114;-73
2021/12/19 20:02:34;;;;;;;24.33;16.00;;;;;;;;;;5117560;27;20064;-73
2021/12/19 20:05:00;;;;;;;26.35;14.52;;;;;;;;;;5117256;27;20034;-73
2021/12/19 20:07:28;;;;;;;27.75;17.33;;;;;;;;;;5116863;27;20060;-75
2021/12/19 20:09:55;;;;;;;24.05;17.50;;;;;;;;;;5119740;27;20042;-73
2021/12/19 20:12:21;;;;;;;22.88;15.15;;;;;;;;;;5115908;27;20043;-74
2021/12/19 20:14:47;;;;;;;27.13;15.98;;;;;;;;;;5114908;27;20028;-74
2021/12/19 20:17:14;;;;;;;24.92;16.35;;;;;;;;;;5107283;27;20023;-73
2021/12/19 20:19:41;;;;;;;27.65;17.20;;;;;;;;;;5111374;27;20391;-75
2021/12/19 20:22:08;;;;;;;28.35;17.75;;;;;;;;;;5111330;27;20049;-73
2021/12/19 20:24:34;;;;;;;29.77;18.70;;;;;;;;;;5112597;27;20020;-73
2021/12/19 20:27:01;;;;;;;29.80;18.95;;;;;;;;;;5104522;27;20039;-73
2021/12/19 20:29:28;;;;;;;32.08;18.88;;;;;;;;;;5112206;27;20027;-74
2021/12/19 20:31:54;;;;;;;29.48;18.77;;;;;;;;;;5116331;27;20046;-73
2021/12/19 20:34:21;;;;;;;32.58;20.00;;;;;;;;;;5114581;27;20038;-74
2021/12/19 20:36:47;;;;;;;31.92;20.45;;;;;;;;;;5120335;27;20031;-74
2021/12/19 20:39:15;;;;;;;31.58;20.50;;;;;;;;;;5114628;27;20483;-73
2021/12/19 20:41:45;;;;;;;30.92;20.95;;;;;;;;;;5109629;27;20122;-75
2021/12/19 20:44:12;;;;;;;30.13;20.88;;;;;;;;;;5106795;27;20556;-74
2021/12/19 20:46:40;;;;;;;36.70;20.17;;;;;;;;;;5102545;27;20036;-74
2021/12/19 20:49:07;;;;;;;32.80;20.02;;;;;;;;;;5117370;27;20031;-74
2021/12/19 20:51:35;;;;;;;34.05;20.05;;;;;;;;;;5117035;27;20034;-74
2021/12/19 20:54:01;;;;;;;33.70;20.33;;;;;;;;;;5116782;27;20027;-75
2021/12/19 20:56:27;;;;;;;34.78;19.63;;;;;;;;;;5105664;27;20024;-77
2021/12/19 20:58:54;;;;;;;31.73;18.65;;;;;;;;;;5105701;27;20023;-75
2021/12/19 21:01:21;;;;;;;27.95;17.63;;;;;;;;;;5105246;27;20054;-76
2021/12/19 21:03:48;;;;;;;24.15;15.95;;;;;;;;;;5099476;27;20516;-74
2021/12/19 21:06:15;;;;;;;29.17;16.70;;;;;;;;;;5104789;27;20047;-80
2021/12/19 21:08:42;;;;;;;21.50;14.90;;;;;;;;;;5106711;27;20039;-78
2021/12/19 21:11:09;;;;;;;35.15;19.02;;;;;;;;;;5106756;27;20058;-75
2021/12/19 21:13:54;;;;;;;32.38;18.83;;;;;;;;;;5104483;27;20023;-75
2021/12/19 21:19:24;;;;;;;31.25;17.38;;;;;;;;;;5114964;27;20129;-76
2021/12/19 21:21:50;;;;;;;31.67;17.75;;;;;;;;;;5118535;27;20410;-76
2021/12/19 21:24:16;;;;;;;27.38;18.00;;;;;;;;;;5113096;27;20023;-76
2021/12/19 21:26:42;;;;;;;27.92;17.15;;;;;;;;;;5111206;27;20027;-75
2021/12/19 21:29:09;;;;;;;25.55;17.05;;;;;;;;;;5113957;27;20027;-76
2021/12/19 21:31:35;;;;;;;31.15;19.52;;;;;;;;;;5113636;27;32590;-74
2021/12/19 21:34:01;;;;;;;26.50;17.20;;;;;;;;;;5114779;27;20402;-74
2021/12/19 21:39:13;;;;;;;27.48;16.92;;;;;;;;;;5106917;27;20034;-74
2021/12/19 21:41:39;;;;;;;28.90;17.25;;;;;;;;;;5107269;27;20031;-77
2021/12/19 21:44:06;;;;;;;33.50;20.63;;;;;;;;;;5109614;27;23582;-75
2021/12/19 21:46:34;;;;;;;40.80;24.58;;;;;;;;;;5105123;27;20023;-77
2021/12/19 21:49:00;;;;;;;37.38;22.25;;;;;;;;;;5102600;27;20102;-76
2021/12/19 21:51:26;;;;;;;42.40;23.55;;;;;;;;;;5094848;27;20028;-75
2021/12/19 21:53:53;;;;;;;40.35;22.13;;;;;;;;;;5107288;27;20031;-76
2021/12/19 21:56:20;;;;;;;34.38;21.08;;;;;;;;;;5097793;27;20033;-75
2021/12/19 21:58:47;;;;;;;30.13;19.05;;;;;;;;;;5093190;27;20042;-77
2021/12/19 22:01:15;;;;;;;33.42;20.13;;;;;;;;;;5094038;27;20030;-76
2021/12/19 22:03:42;;;;;;;34.10;20.20;;;;;;;;;;5094856;27;20031;-74
2021/12/19 22:06:08;;;;;;;33.60;21.00;;;;;;;;;;5102652;27;20393;-75
2021/12/19 22:08:34;;;;;;;33.45;21.35;;;;;;;;;;5108692;27;20502;-75
2021/12/19 22:11:10;;;;;;;34.45;19.70;;;;;;;;;;5106450;27;20028;-76
2021/12/19 22:16:22;;;;;;;35.13;19.80;;;;;;;;;;5095614;27;20144;-75
2021/12/19 22:18:49;;;;;;;29.98;18.75;;;;;;;;;;5102350;27;20038;-75
2021/12/19 22:21:15;;;;;;;31.20;19.08;;;;;;;;;;5108520;27;20444;-75
2021/12/19 22:23:42;;;;;;;34.03;18.92;;;;;;;;;;5119702;27;20054;-76
2021/12/19 22:26:08;;;;;;;31.40;19.30;;;;;;;;;;5114539;27;20428;-75
2021/12/19 22:28:34;;;;;;;32.75;18.95;;;;;;;;;;5111737;27;20154;-74
2021/12/19 22:31:01;;;;;;;30.83;20.25;;;;;;;;;;5105908;27;20040;-77
2021/12/19 22:33:27;;;;;;;33.42;19.13;;;;;;;;;;5115507;27;20513;-76
2021/12/19 22:35:54;;;;;;;40.35;22.67;;;;;;;;;;5119935;27;20019;-73
2021/12/19 22:38:21;;;;;;;60.13;30.95;;;;;;;;;;5113689;27;20069;-73
2021/12/19 22:40:47;;;;;;;88.22;40.65;;;;;;;;;;5118882;27;20039;-73
2021/12/19 22:43:13;;;;;;;77.90;38.13;;;;;;;;;;5104837;27;20038;-74
2021/12/19 22:45:39;;;;;;;80.32;38.40;;;;;;;;;;5117323;27;20524;-74
2021/12/19 22:48:05;;;;;;;55.28;28.13;;;;;;;;;;5103327;27;20081;-74
2021/12/19 22:50:31;;;;;;;51.83;27.85;;;;;;;;;;5109846;27;20019;-74
2021/12/19 22:52:58;;;;;;;39.63;23.77;;;;;;;;;;5107926;27;20039;-74
2021/12/19 22:55:25;;;;;;;49.40;26.50;;;;;;;;;;5110029;27;20024;-75
2021/12/19 22:57:51;;;;;;;41.42;24.48;;;;;;;;;;5111571;27;20478;-74
2021/12/19 23:00:44;;;;;;;37.58;22.40;;;;;;;;;;5110946;27;20024;-74
2021/12/19 23:03:11;;;;;;;45.85;26.63;;;;;;;;;;5112554;27;20016;-74
2021/12/19 23:05:38;;;;;;;41.53;24.35;;;;;;;;;;5121406;27;20066;-74
2021/12/19 23:08:08;;;;;;;37.67;22.00;;;;;;;;;;5117883;27;20079;-74
2021/12/19 23:10:38;;;;;;;31.60;20.30;;;;;;;;;;5115520;27;20077;-74
2021/12/19 23:13:13;;;;;;;32.85;20.40;;;;;;;;;;5119250;27;20035;-74
2021/12/19 23:15:41;;;;;;;35.28;19.50;;;;;;;;;;5113962;27;20039;-74
2021/12/19 23:18:08;;;;;;;34.08;19.52;;;;;;;;;;5117588;27;20051;-74
2021/12/19 23:20:34;;;;;;;30.25;18.30;;;;;;;;;;5119794;27;20387;-73
2021/12/19 23:23:00;;;;;;;30.92;18.88;;;;;;;;;;5113089;27;20028;-74
2021/12/19 23:25:26;;;;;;;28.67;18.48;;;;;;;;;;5110429;27;20439;-74
